createdAt,value
2018-10-07T00:00:21.945Z,10.19
2018-10-07T00:00:53.045Z,10.22
2018-10-07T00:01:24.150Z,10.23
2018-10-07T00:01:55.283Z,10.25
2018-10-07T00:02:26.403Z,10.24
2018-10-07T00:02:57.513Z,10.25
2018-10-07T00:03:28.628Z,10.24
2018-10-07T00:03:59.734Z,10.22
2018-10-07T00:04:30.872Z,10.21
2018-10-07T00:05:01.982Z,10.20
2018-10-07T00:05:33.183Z,10.21
2018-10-07T00:06:04.287Z,10.19
2018-10-07T00:06:35.409Z,10.19
2018-10-07T00:07:06.517Z,10.18
2018-10-07T00:07:37.625Z,10.16
2018-10-07T00:08:08.757Z,10.17
2018-10-07T00:08:39.865Z,10.16
2018-10-07T00:09:10.984Z,10.14
2018-10-07T00:09:42.099Z,10.14
2018-10-07T00:10:13.226Z,10.13
2018-10-07T00:10:44.389Z,10.11
2018-10-07T00:11:15.547Z,10.12
2018-10-07T00:11:46.653Z,10.11
2018-10-07T00:12:17.785Z,10.10
2018-10-07T00:12:48.886Z,10.06
2018-10-07T00:13:20.014Z,10.02
2018-10-07T00:13:51.110Z,9.96
2018-10-07T00:14:22.214Z,9.90
2018-10-07T00:14:53.337Z,9.85
2018-10-07T00:15:24.463Z,9.81
2018-10-07T00:15:55.554Z,9.79
2018-10-07T00:16:26.661Z,9.76
2018-10-07T00:16:57.788Z,9.75
2018-10-07T00:17:28.945Z,9.71
2018-10-07T00:18:00.057Z,9.67
2018-10-07T00:18:31.195Z,9.64
2018-10-07T00:19:02.300Z,9.60
2018-10-07T00:19:33.421Z,9.55
2018-10-07T00:20:04.517Z,9.54
2018-10-07T00:20:35.614Z,9.50
2018-10-07T00:21:06.733Z,9.47
2018-10-07T00:21:37.854Z,9.48
2018-10-07T00:22:09.042Z,9.50
2018-10-07T00:22:40.155Z,9.50
2018-10-07T00:23:11.268Z,9.50
2018-10-07T00:23:42.387Z,9.45
2018-10-07T00:24:13.491Z,9.43
2018-10-07T00:24:44.585Z,9.42
2018-10-07T00:25:15.686Z,9.41
2018-10-07T00:25:46.804Z,9.38
2018-10-07T00:26:17.957Z,9.33
2018-10-07T00:26:49.066Z,9.26
2018-10-07T00:27:20.194Z,9.19
2018-10-07T00:27:51.299Z,9.14
2018-10-07T00:28:22.402Z,9.13
2018-10-07T00:28:53.502Z,9.13
2018-10-07T00:29:24.623Z,9.14
2018-10-07T00:29:55.727Z,9.11
2018-10-07T00:30:26.827Z,9.10
2018-10-07T00:30:57.960Z,9.10
2018-10-07T00:31:29.115Z,9.11
2018-10-07T00:32:00.251Z,9.11
2018-10-07T00:32:31.403Z,9.12
2018-10-07T00:33:02.539Z,9.11
2018-10-07T00:33:33.637Z,9.09
2018-10-07T00:34:04.750Z,9.09
2018-10-07T00:34:35.854Z,9.08
2018-10-07T00:35:06.961Z,9.08
2018-10-07T00:35:38.063Z,9.07
2018-10-07T00:36:09.164Z,9.06
2018-10-07T00:36:40.266Z,9.08
2018-10-07T00:37:11.436Z,9.10
2018-10-07T00:37:42.551Z,9.07
2018-10-07T00:38:13.663Z,9.04
2018-10-07T00:38:44.763Z,9.01
2018-10-07T00:39:15.884Z,9.00
2018-10-07T00:39:46.993Z,8.97
2018-10-07T00:40:18.125Z,8.97
2018-10-07T00:40:49.225Z,8.92
2018-10-07T00:41:20.335Z,8.92
2018-10-07T00:41:52.097Z,8.94
2018-10-07T00:42:23.275Z,8.93
2018-10-07T00:42:54.422Z,8.93
2018-10-07T00:43:25.534Z,8.91
2018-10-07T00:43:56.646Z,8.91
2018-10-07T00:44:27.789Z,8.91
2018-10-07T00:44:58.903Z,8.93
2018-10-07T00:45:30.090Z,8.95
2018-10-07T00:46:01.178Z,8.97
2018-10-07T00:46:32.310Z,8.94
2018-10-07T00:47:03.401Z,8.96
2018-10-07T00:47:34.567Z,8.93
2018-10-07T00:48:05.684Z,8.94
2018-10-07T00:48:36.806Z,8.93
2018-10-07T00:49:07.933Z,8.92
2018-10-07T00:49:39.043Z,8.93
2018-10-07T00:50:10.211Z,8.94
2018-10-07T00:50:41.426Z,8.93
2018-10-07T00:51:12.531Z,8.93
2018-10-07T00:51:43.625Z,8.93
2018-10-07T00:52:14.730Z,8.94
2018-10-07T00:52:45.907Z,8.94
2018-10-07T00:53:17.090Z,8.94
2018-10-07T00:53:48.199Z,8.94
2018-10-07T00:54:19.361Z,8.93
2018-10-07T00:54:50.469Z,8.92
2018-10-07T00:55:21.639Z,8.92
2018-10-07T00:55:52.778Z,8.91
2018-10-07T00:56:23.898Z,8.92
2018-10-07T00:56:55.028Z,8.90
2018-10-07T00:57:26.141Z,8.89
2018-10-07T00:57:57.252Z,8.89
2018-10-07T00:58:28.413Z,8.88
2018-10-07T00:58:59.547Z,8.89
2018-10-07T00:59:30.692Z,8.89
2018-10-07T01:00:01.814Z,8.89
2018-10-07T01:00:32.917Z,8.90
2018-10-07T01:01:04.041Z,8.89
2018-10-07T01:01:35.151Z,8.88
2018-10-07T01:02:06.321Z,8.88
2018-10-07T01:02:37.476Z,8.88
2018-10-07T01:03:08.583Z,8.86
2018-10-07T01:03:39.701Z,8.84
2018-10-07T01:04:10.821Z,8.82
2018-10-07T01:04:41.913Z,8.81
2018-10-07T01:05:13.011Z,8.83
2018-10-07T01:05:44.109Z,8.83
2018-10-07T01:06:15.209Z,8.84
2018-10-07T01:06:46.305Z,8.83
2018-10-07T01:07:17.463Z,8.83
2018-10-07T01:07:48.593Z,8.83
2018-10-07T01:08:19.711Z,8.84
2018-10-07T01:08:50.812Z,8.82
2018-10-07T01:09:21.903Z,8.81
2018-10-07T01:09:53.038Z,8.83
2018-10-07T01:10:24.159Z,8.83
2018-10-07T01:10:55.307Z,8.83
2018-10-07T01:11:26.406Z,8.83
2018-10-07T01:11:57.520Z,8.82
2018-10-07T01:12:28.661Z,8.84
2018-10-07T01:12:59.771Z,8.82
2018-10-07T01:13:30.877Z,8.83
2018-10-07T01:14:02.008Z,8.82
2018-10-07T01:14:33.115Z,8.82
2018-10-07T01:15:04.225Z,8.80
2018-10-07T01:15:35.339Z,8.81
2018-10-07T01:16:06.461Z,8.80
2018-10-07T01:16:37.569Z,8.81
2018-10-07T01:17:08.707Z,8.80
2018-10-07T01:17:39.802Z,8.80
2018-10-07T01:18:10.922Z,8.78
2018-10-07T01:18:42.020Z,8.76
2018-10-07T01:19:13.169Z,8.74
2018-10-07T01:19:44.266Z,8.73
2018-10-07T01:20:15.382Z,8.70
2018-10-07T01:20:46.484Z,8.69
2018-10-07T01:21:17.584Z,8.67
2018-10-07T01:21:48.722Z,8.65
2018-10-07T01:22:19.830Z,8.64
2018-10-07T01:22:50.949Z,8.60
2018-10-07T01:23:22.125Z,8.60
2018-10-07T01:23:53.223Z,8.60
2018-10-07T01:24:24.340Z,8.60
2018-10-07T01:24:55.433Z,8.57
2018-10-07T01:25:26.559Z,8.57
2018-10-07T01:25:57.693Z,8.56
2018-10-07T01:26:28.821Z,8.55
2018-10-07T01:26:59.937Z,8.55
2018-10-07T01:27:31.058Z,8.56
2018-10-07T01:28:02.150Z,8.55
2018-10-07T01:28:33.321Z,8.56
2018-10-07T01:29:04.426Z,8.55
2018-10-07T01:29:35.715Z,8.53
2018-10-07T01:30:06.822Z,8.50
2018-10-07T01:30:37.962Z,8.48
2018-10-07T01:31:09.079Z,8.45
2018-10-07T01:31:40.185Z,8.43
2018-10-07T01:32:11.291Z,8.40
2018-10-07T01:32:42.396Z,8.37
2018-10-07T01:33:13.524Z,8.36
2018-10-07T01:33:44.682Z,8.35
2018-10-07T01:34:15.789Z,8.37
2018-10-07T01:34:46.898Z,8.40
2018-10-07T01:35:18.019Z,8.40
2018-10-07T01:35:49.188Z,8.38
2018-10-07T01:36:20.305Z,8.35
2018-10-07T01:36:51.441Z,8.36
2018-10-07T01:37:22.567Z,8.34
2018-10-07T01:37:53.687Z,8.33
2018-10-07T01:38:24.827Z,8.30
2018-10-07T01:38:55.985Z,8.29
2018-10-07T01:39:27.128Z,8.29
2018-10-07T01:39:58.278Z,8.27
2018-10-07T01:40:29.427Z,8.26
2018-10-07T01:41:00.553Z,8.25
2018-10-07T01:41:31.680Z,8.25
2018-10-07T01:42:02.824Z,8.23
2018-10-07T01:42:33.945Z,8.21
2018-10-07T01:43:05.105Z,8.22
2018-10-07T01:43:36.254Z,8.22
2018-10-07T01:44:07.365Z,8.23
2018-10-07T01:44:38.474Z,8.23
2018-10-07T01:45:09.593Z,8.23
2018-10-07T01:45:40.773Z,8.24
2018-10-07T01:46:11.953Z,8.22
2018-10-07T01:46:43.088Z,8.19
2018-10-07T01:47:14.227Z,8.21
2018-10-07T01:47:45.385Z,8.22
2018-10-07T01:48:16.505Z,8.22
2018-10-07T01:48:47.637Z,8.24
2018-10-07T01:49:18.764Z,8.24
2018-10-07T01:49:49.891Z,8.24
2018-10-07T01:50:21.030Z,8.26
2018-10-07T01:50:52.178Z,8.27
2018-10-07T01:51:23.328Z,8.27
2018-10-07T01:51:54.437Z,8.30
2018-10-07T01:52:25.563Z,8.32
2018-10-07T01:52:56.718Z,8.35
2018-10-07T01:53:27.859Z,8.35
2018-10-07T01:53:58.965Z,8.38
2018-10-07T01:54:30.091Z,8.39
2018-10-07T01:55:01.233Z,8.43
2018-10-07T01:55:32.333Z,8.46
2018-10-07T01:56:03.436Z,8.48
2018-10-07T01:56:34.540Z,8.48
2018-10-07T01:57:05.651Z,8.49
2018-10-07T01:57:36.838Z,8.49
2018-10-07T01:58:08.004Z,8.48
2018-10-07T01:58:39.206Z,8.49
2018-10-07T01:59:10.374Z,8.47
2018-10-07T01:59:41.434Z,8.47
2018-10-07T02:00:12.569Z,8.44
2018-10-07T02:00:43.672Z,8.42
2018-10-07T02:01:14.873Z,8.42
2018-10-07T02:01:46.043Z,8.42
2018-10-07T02:02:17.160Z,8.40
2018-10-07T02:02:48.326Z,8.39
2018-10-07T02:03:19.466Z,8.38
2018-10-07T02:03:50.603Z,8.35
2018-10-07T02:04:21.722Z,8.35
2018-10-07T02:04:52.839Z,8.36
2018-10-07T02:05:23.943Z,8.34
2018-10-07T02:05:55.057Z,8.34
2018-10-07T02:06:26.154Z,8.33
2018-10-07T02:06:57.285Z,8.34
2018-10-07T02:07:28.452Z,8.34
2018-10-07T02:07:59.570Z,8.32
2018-10-07T02:08:30.670Z,8.33
2018-10-07T02:09:01.786Z,8.33
2018-10-07T02:09:32.953Z,8.34
2018-10-07T02:10:04.111Z,8.34
2018-10-07T02:10:35.303Z,8.36
2018-10-07T02:11:06.418Z,8.38
2018-10-07T02:11:37.662Z,8.38
2018-10-07T02:12:08.791Z,8.38
2018-10-07T02:12:39.910Z,8.37
2018-10-07T02:13:11.035Z,8.38
2018-10-07T02:13:42.198Z,8.36
2018-10-07T02:14:13.379Z,8.35
2018-10-07T02:14:44.483Z,8.33
2018-10-07T02:15:15.637Z,8.33
2018-10-07T02:15:46.754Z,8.31
2018-10-07T02:16:17.884Z,8.31
2018-10-07T02:17:26.411Z,8.33
2018-10-07T02:17:57.532Z,8.32
2018-10-07T02:18:28.675Z,8.32
2018-10-07T02:18:59.800Z,8.35
2018-10-07T02:19:30.913Z,8.34
2018-10-07T02:20:02.152Z,8.33
2018-10-07T02:20:33.389Z,8.35
2018-10-07T02:21:04.519Z,8.36
2018-10-07T02:21:35.658Z,8.38
2018-10-07T02:22:06.777Z,8.40
2018-10-07T02:22:37.892Z,8.40
2018-10-07T02:23:08.989Z,8.40
2018-10-07T02:23:40.110Z,8.41
2018-10-07T02:24:11.266Z,8.40
2018-10-07T02:24:42.427Z,8.38
2018-10-07T02:25:13.548Z,8.37
2018-10-07T02:25:44.735Z,8.36
2018-10-07T02:26:15.848Z,8.34
2018-10-07T02:26:47.002Z,8.33
2018-10-07T02:27:18.141Z,8.34
2018-10-07T02:27:49.299Z,8.33
2018-10-07T02:28:20.397Z,8.33
2018-10-07T02:28:51.538Z,8.33
2018-10-07T02:29:22.683Z,8.29
2018-10-07T02:29:53.849Z,8.28
2018-10-07T02:30:24.963Z,8.27
2018-10-07T02:30:56.077Z,8.28
2018-10-07T02:31:27.205Z,8.29
2018-10-07T02:31:58.348Z,8.29
2018-10-07T02:32:29.479Z,8.27
2018-10-07T02:33:00.593Z,8.24
2018-10-07T02:33:31.726Z,8.25
2018-10-07T02:34:02.877Z,8.25
2018-10-07T02:34:34.014Z,8.26
2018-10-07T02:35:05.187Z,8.25
2018-10-07T02:35:36.298Z,8.25
2018-10-07T02:36:07.430Z,8.25
2018-10-07T02:36:38.581Z,8.25
2018-10-07T02:37:09.779Z,8.26
2018-10-07T02:37:40.892Z,8.26
2018-10-07T02:38:12.015Z,8.28
2018-10-07T02:38:43.192Z,8.30
2018-10-07T02:39:14.296Z,8.30
2018-10-07T02:39:45.453Z,8.29
2018-10-07T02:40:16.637Z,8.30
2018-10-07T02:40:47.820Z,8.30
2018-10-07T02:41:18.932Z,8.30
2018-10-07T02:41:50.070Z,8.29
2018-10-07T02:42:21.250Z,8.29
2018-10-07T02:42:52.361Z,8.27
2018-10-07T02:43:23.581Z,8.24
2018-10-07T02:43:54.708Z,8.23
2018-10-07T02:44:25.842Z,8.23
2018-10-07T02:44:56.967Z,8.21
2018-10-07T02:45:28.129Z,8.21
2018-10-07T02:45:59.279Z,8.20
2018-10-07T02:46:30.394Z,8.20
2018-10-07T02:47:01.582Z,8.19
2018-10-07T02:47:32.689Z,8.18
2018-10-07T02:48:03.865Z,8.18
2018-10-07T02:48:34.997Z,8.16
2018-10-07T02:49:06.118Z,8.14
2018-10-07T02:49:37.282Z,8.14
2018-10-07T02:50:08.457Z,8.14
2018-10-07T02:50:39.613Z,8.15
2018-10-07T02:51:10.721Z,8.17
2018-10-07T02:51:41.821Z,8.20
2018-10-07T02:52:12.929Z,8.21
2018-10-07T02:52:44.092Z,8.22
2018-10-07T02:53:15.213Z,8.23
2018-10-07T02:53:46.350Z,8.24
2018-10-07T02:54:17.514Z,8.24
2018-10-07T02:54:48.689Z,8.26
2018-10-07T02:55:19.835Z,8.27
2018-10-07T02:55:51.018Z,8.27
2018-10-07T02:56:22.168Z,8.26
2018-10-07T02:56:53.278Z,8.28
2018-10-07T02:57:24.412Z,8.28
2018-10-07T02:57:55.542Z,8.29
2018-10-07T02:58:26.665Z,8.29
2018-10-07T02:58:57.793Z,8.28
2018-10-07T02:59:28.949Z,8.30
2018-10-07T03:00:00.061Z,8.31
2018-10-07T03:00:31.192Z,8.30
2018-10-07T03:01:02.304Z,8.31
2018-10-07T03:01:33.448Z,8.29
2018-10-07T03:02:04.599Z,8.28
2018-10-07T03:02:35.731Z,8.27
2018-10-07T03:03:06.861Z,8.26
2018-10-07T03:03:38.011Z,8.26
2018-10-07T03:04:09.153Z,8.26
2018-10-07T03:04:40.293Z,8.27
2018-10-07T03:05:11.521Z,8.27
2018-10-07T03:05:42.684Z,8.27
2018-10-07T03:06:13.818Z,8.26
2018-10-07T03:06:44.946Z,8.25
2018-10-07T03:07:16.096Z,8.26
2018-10-07T03:07:47.277Z,8.26
2018-10-07T03:08:18.423Z,8.26
2018-10-07T03:08:49.558Z,8.27
2018-10-07T03:09:20.754Z,8.27
2018-10-07T03:09:51.877Z,8.26
2018-10-07T03:10:23.049Z,8.26
2018-10-07T03:10:54.207Z,8.25
2018-10-07T03:11:25.334Z,8.24
2018-10-07T03:11:56.470Z,8.23
2018-10-07T03:12:27.590Z,8.23
2018-10-07T03:12:58.763Z,8.20
2018-10-07T03:13:29.878Z,8.18
2018-10-07T03:14:00.999Z,8.16
2018-10-07T03:14:32.166Z,8.16
2018-10-07T03:15:03.332Z,8.13
2018-10-07T03:15:34.477Z,8.14
2018-10-07T03:16:05.653Z,8.12
2018-10-07T03:16:36.752Z,8.14
2018-10-07T03:17:07.908Z,8.15
2018-10-07T03:17:39.026Z,8.15
2018-10-07T03:18:10.203Z,8.14
2018-10-07T03:18:41.354Z,8.15
2018-10-07T03:19:12.476Z,8.16
2018-10-07T03:19:43.581Z,7.95
2018-10-07T03:20:14.687Z,8.18
2018-10-07T03:20:45.785Z,8.17
2018-10-07T03:21:16.898Z,8.17
2018-10-07T03:21:48.045Z,8.16
2018-10-07T03:22:19.186Z,8.16
2018-10-07T03:22:50.310Z,8.13
2018-10-07T03:23:21.415Z,8.12
2018-10-07T03:23:52.571Z,8.12
2018-10-07T03:24:23.676Z,8.11
2018-10-07T03:24:54.818Z,8.10
2018-10-07T03:25:25.964Z,8.08
2018-10-07T03:25:57.096Z,8.06
2018-10-07T03:26:28.197Z,8.04
2018-10-07T03:26:59.305Z,8.03
2018-10-07T03:27:30.478Z,8.02
2018-10-07T03:28:01.613Z,8.00
2018-10-07T03:28:32.732Z,7.97
2018-10-07T03:29:03.896Z,7.95
2018-10-07T03:29:35.042Z,7.92
2018-10-07T03:30:06.237Z,7.92
2018-10-07T03:30:37.384Z,7.92
2018-10-07T03:31:08.534Z,7.91
2018-10-07T03:31:39.675Z,7.92
2018-10-07T03:32:10.820Z,7.93
2018-10-07T03:32:41.952Z,7.95
2018-10-07T03:33:13.075Z,7.95
2018-10-07T03:33:44.217Z,7.98
2018-10-07T03:34:15.442Z,7.98
2018-10-07T03:34:46.569Z,7.97
2018-10-07T03:35:17.754Z,7.95
2018-10-07T03:35:48.883Z,7.96
2018-10-07T03:36:19.996Z,7.95
2018-10-07T03:36:51.153Z,7.93
2018-10-07T03:37:22.261Z,7.91
2018-10-07T03:37:53.387Z,7.89
2018-10-07T03:38:24.498Z,7.89
2018-10-07T03:38:55.673Z,7.88
2018-10-07T03:39:26.812Z,7.86
2018-10-07T03:39:58.026Z,7.86
2018-10-07T03:40:29.191Z,7.86
2018-10-07T03:41:00.307Z,7.86
2018-10-07T03:41:31.431Z,7.84
2018-10-07T03:42:02.546Z,7.83
2018-10-07T03:42:33.659Z,7.83
2018-10-07T03:43:04.816Z,7.83
2018-10-07T03:43:35.942Z,7.81
2018-10-07T03:44:07.117Z,7.80
2018-10-07T03:44:38.270Z,7.78
2018-10-07T03:45:09.388Z,7.76
2018-10-07T03:45:40.497Z,7.75
2018-10-07T03:46:11.618Z,7.75
2018-10-07T03:46:42.747Z,7.73
2018-10-07T03:47:13.867Z,7.72
2018-10-07T03:47:44.975Z,7.70
2018-10-07T03:48:16.129Z,7.71
2018-10-07T03:48:47.278Z,7.70
2018-10-07T03:49:18.369Z,7.71
2018-10-07T03:49:49.513Z,7.71
2018-10-07T03:50:20.647Z,7.72
2018-10-07T03:50:51.758Z,7.71
2018-10-07T03:51:23.187Z,7.71
2018-10-07T03:51:54.439Z,7.71
2018-10-07T03:52:25.543Z,7.71
2018-10-07T03:52:56.666Z,7.73
2018-10-07T03:53:27.770Z,7.73
2018-10-07T03:53:58.926Z,7.73
2018-10-07T03:54:30.111Z,7.72
2018-10-07T03:55:01.225Z,7.71
2018-10-07T03:55:32.408Z,7.71
2018-10-07T03:56:03.561Z,7.72
2018-10-07T03:56:34.699Z,7.70
2018-10-07T03:57:05.873Z,7.70
2018-10-07T03:57:37.014Z,7.71
2018-10-07T03:58:08.133Z,7.70
2018-10-07T03:58:39.337Z,7.72
2018-10-07T03:59:10.512Z,7.71
2018-10-07T03:59:41.612Z,7.71
2018-10-07T04:00:12.733Z,7.71
2018-10-07T04:00:43.984Z,7.72
2018-10-07T04:01:15.121Z,7.71
2018-10-07T04:01:46.231Z,7.73
2018-10-07T04:02:17.379Z,7.73
2018-10-07T04:02:48.502Z,7.72
2018-10-07T04:03:19.678Z,7.70
2018-10-07T04:03:50.883Z,7.70
2018-10-07T04:04:22.040Z,7.70
2018-10-07T04:04:53.209Z,7.69
2018-10-07T04:05:24.334Z,7.68
2018-10-07T04:05:55.436Z,7.67
2018-10-07T04:06:26.575Z,7.67
2018-10-07T04:06:57.692Z,7.66
2018-10-07T04:07:28.869Z,7.65
2018-10-07T04:07:59.991Z,7.64
2018-10-07T04:08:31.133Z,7.63
2018-10-07T04:09:02.338Z,7.62
2018-10-07T04:09:33.435Z,7.60
2018-10-07T04:10:04.590Z,7.59
2018-10-07T04:10:35.703Z,7.60
2018-10-07T04:11:06.851Z,7.59
2018-10-07T04:11:38.027Z,7.58
2018-10-07T04:12:09.158Z,7.58
2018-10-07T04:12:40.278Z,7.58
2018-10-07T04:13:11.396Z,7.58
2018-10-07T04:13:42.575Z,7.59
2018-10-07T04:14:13.679Z,7.61
2018-10-07T04:14:44.808Z,7.61
2018-10-07T04:15:15.917Z,7.62
2018-10-07T04:15:47.031Z,7.63
2018-10-07T04:16:18.160Z,7.63
2018-10-07T04:16:49.334Z,7.63
2018-10-07T04:17:20.487Z,7.62
2018-10-07T04:17:51.644Z,7.62
2018-10-07T04:18:22.806Z,7.61
2018-10-07T04:18:53.919Z,7.61
2018-10-07T04:19:25.031Z,7.59
2018-10-07T04:19:56.197Z,7.59
2018-10-07T04:20:27.346Z,7.60
2018-10-07T04:20:58.447Z,7.61
2018-10-07T04:21:29.597Z,7.60
2018-10-07T04:22:00.752Z,7.60
2018-10-07T04:22:31.884Z,7.63
2018-10-07T04:23:03.069Z,7.65
2018-10-07T04:23:34.195Z,7.64
2018-10-07T04:24:05.305Z,7.63
2018-10-07T04:24:36.419Z,7.61
2018-10-07T04:25:07.549Z,7.58
2018-10-07T04:25:38.696Z,7.60
2018-10-07T04:26:09.819Z,7.62
2018-10-07T04:26:40.984Z,7.68
2018-10-07T04:27:12.159Z,7.70
2018-10-07T04:27:43.271Z,7.71
2018-10-07T04:28:14.373Z,7.71
2018-10-07T04:28:45.518Z,7.70
2018-10-07T04:29:16.660Z,7.68
2018-10-07T04:29:47.769Z,7.61
2018-10-07T04:30:18.949Z,7.60
2018-10-07T04:30:50.060Z,7.67
2018-10-07T04:31:21.171Z,7.71
2018-10-07T04:31:52.276Z,7.75
2018-10-07T04:32:23.388Z,7.77
2018-10-07T04:32:54.521Z,7.81
2018-10-07T04:33:25.652Z,7.79
2018-10-07T04:33:56.821Z,7.84
2018-10-07T04:34:27.932Z,7.88
2018-10-07T04:34:59.097Z,7.89
2018-10-07T04:35:30.314Z,7.89
2018-10-07T04:36:01.429Z,7.92
2018-10-07T04:36:32.544Z,7.95
2018-10-07T04:37:03.748Z,7.98
2018-10-07T04:37:34.837Z,8.05
2018-10-07T04:38:05.946Z,8.10
2018-10-07T04:38:37.079Z,8.10
2018-10-07T04:39:08.257Z,8.17
2018-10-07T04:39:39.533Z,8.21
2018-10-07T04:40:10.679Z,8.27
2018-10-07T04:40:41.865Z,8.31
2018-10-07T04:41:12.995Z,8.36
2018-10-07T04:41:44.108Z,8.43
2018-10-07T04:42:15.205Z,8.48
2018-10-07T04:42:46.351Z,8.54
2018-10-07T04:43:17.468Z,8.58
2018-10-07T04:43:48.601Z,8.58
2018-10-07T04:44:19.736Z,8.63
2018-10-07T04:44:50.865Z,8.72
2018-10-07T04:45:22.010Z,8.80
2018-10-07T04:45:53.157Z,8.88
2018-10-07T04:46:24.295Z,8.98
2018-10-07T04:46:55.512Z,9.06
2018-10-07T04:47:26.663Z,9.14
2018-10-07T04:47:57.801Z,9.23
2018-10-07T04:48:28.979Z,9.33
2018-10-07T04:49:00.088Z,9.39
2018-10-07T04:49:31.213Z,9.38
2018-10-07T04:50:02.326Z,9.46
2018-10-07T04:50:33.470Z,9.51
2018-10-07T04:51:04.609Z,9.57
2018-10-07T04:51:35.728Z,9.64
2018-10-07T04:52:06.862Z,9.62
2018-10-07T04:52:37.982Z,9.65
2018-10-07T04:53:09.106Z,9.70
2018-10-07T04:53:40.282Z,9.77
2018-10-07T04:54:11.427Z,9.83
2018-10-07T04:54:42.618Z,9.90
2018-10-07T04:55:13.733Z,9.95
2018-10-07T04:55:44.877Z,10.01
2018-10-07T04:56:15.989Z,10.09
2018-10-07T04:56:47.209Z,10.16
2018-10-07T04:57:18.466Z,10.22
2018-10-07T04:57:49.597Z,10.28
2018-10-07T04:58:20.747Z,10.33
2018-10-07T04:58:51.905Z,10.38
2018-10-07T04:59:23.119Z,10.46
2018-10-07T04:59:56.757Z,10.49
2018-10-07T05:00:27.943Z,10.55
2018-10-07T05:00:59.082Z,10.58
2018-10-07T05:01:30.212Z,10.58
2018-10-07T05:02:01.328Z,10.60
2018-10-07T05:02:32.505Z,10.65
2018-10-07T05:03:03.653Z,10.67
2018-10-07T05:03:34.785Z,10.67
2018-10-07T05:04:05.974Z,10.72
2018-10-07T05:04:37.120Z,10.68
2018-10-07T05:05:08.316Z,10.70
2018-10-07T05:05:39.471Z,10.68
2018-10-07T05:06:10.611Z,10.66
2018-10-07T05:06:41.813Z,10.67
2018-10-07T05:07:12.956Z,10.41
2018-10-07T05:07:44.072Z,7.84
2018-10-07T05:08:15.300Z,10.50
2018-10-07T05:08:46.456Z,10.51
2018-10-07T05:09:17.651Z,10.53
2018-10-07T05:09:48.789Z,10.50
2018-10-07T05:10:19.998Z,10.48
2018-10-07T05:10:51.175Z,10.49
2018-10-07T05:11:22.363Z,10.47
2018-10-07T05:11:53.678Z,10.44
2018-10-07T05:12:24.857Z,10.44
2018-10-07T05:12:55.969Z,10.46
2018-10-07T05:13:30.137Z,10.45
2018-10-07T05:14:01.250Z,10.46
2018-10-07T05:14:32.362Z,10.33
2018-10-07T05:15:03.473Z,10.28
2018-10-07T05:15:35.411Z,10.25
2018-10-07T05:16:06.553Z,10.28
2018-10-07T05:16:37.657Z,10.31
2018-10-07T05:17:08.792Z,10.30
2018-10-07T05:17:40.034Z,10.30
2018-10-07T05:18:11.142Z,10.29
2018-10-07T05:18:42.296Z,10.25
2018-10-07T05:19:13.500Z,10.25
2018-10-07T05:19:44.631Z,10.18
2018-10-07T05:20:15.784Z,10.20
2018-10-07T05:20:47.006Z,10.18
2018-10-07T05:21:18.096Z,10.23
2018-10-07T05:21:49.222Z,10.25
2018-10-07T05:22:20.339Z,10.24
2018-10-07T05:22:51.438Z,10.24
2018-10-07T05:23:22.618Z,10.23
2018-10-07T05:23:53.749Z,10.23
2018-10-07T05:24:24.892Z,10.18
2018-10-07T05:24:56.005Z,10.16
2018-10-07T05:25:27.183Z,10.17
2018-10-07T05:25:58.309Z,10.23
2018-10-07T05:26:29.439Z,10.28
2018-10-07T05:27:00.553Z,10.33
2018-10-07T05:27:31.766Z,10.36
2018-10-07T05:28:02.935Z,10.37
2018-10-07T05:28:34.041Z,10.38
2018-10-07T05:29:05.156Z,10.38
2018-10-07T05:29:36.354Z,10.40
2018-10-07T05:30:07.466Z,10.42
2018-10-07T05:30:38.611Z,10.45
2018-10-07T05:31:09.762Z,10.47
2018-10-07T05:31:40.923Z,10.50
2018-10-07T05:32:12.063Z,10.54
2018-10-07T05:32:43.224Z,10.58
2018-10-07T05:33:14.338Z,10.61
2018-10-07T05:33:45.464Z,10.62
2018-10-07T05:34:16.578Z,10.61
2018-10-07T05:34:47.753Z,10.63
2018-10-07T05:35:18.890Z,10.66
2018-10-07T05:35:49.998Z,10.66
2018-10-07T05:36:21.111Z,10.69
2018-10-07T05:36:52.208Z,10.70
2018-10-07T05:37:23.313Z,10.71
2018-10-07T05:37:54.456Z,10.71
2018-10-07T05:38:25.595Z,10.73
2018-10-07T05:38:56.705Z,10.73
2018-10-07T05:39:27.819Z,10.73
2018-10-07T05:39:58.943Z,10.73
2018-10-07T05:40:30.063Z,10.74
2018-10-07T05:41:01.175Z,10.75
2018-10-07T05:41:32.333Z,10.75
2018-10-07T05:42:03.463Z,10.76
2018-10-07T05:42:34.568Z,10.76
2018-10-07T05:43:05.740Z,10.77
2018-10-07T05:43:36.856Z,10.76
2018-10-07T05:44:08.024Z,10.72
2018-10-07T05:44:39.155Z,10.71
2018-10-07T05:45:10.250Z,10.71
2018-10-07T05:45:41.358Z,10.73
2018-10-07T05:46:12.498Z,10.78
2018-10-07T05:46:43.639Z,10.81
2018-10-07T05:47:14.741Z,10.82
2018-10-07T05:47:45.845Z,10.81
2018-10-07T05:48:16.958Z,10.81
2018-10-07T05:48:48.095Z,10.83
2018-10-07T05:49:19.237Z,10.83
2018-10-07T05:49:50.406Z,10.84
2018-10-07T05:50:21.599Z,10.83
2018-10-07T05:50:52.783Z,10.80
2018-10-07T05:51:24.000Z,10.84
2018-10-07T05:51:55.110Z,10.81
2018-10-07T05:52:26.238Z,10.78
2018-10-07T05:52:57.347Z,10.77
2018-10-07T05:53:28.455Z,10.78
2018-10-07T05:54:46.674Z,10.83
2018-10-07T05:55:17.817Z,10.89
2018-10-07T05:55:49.040Z,10.91
2018-10-07T05:56:20.115Z,10.92
2018-10-07T05:56:51.268Z,10.92
2018-10-07T05:57:22.377Z,10.93
2018-10-07T05:57:53.502Z,11.01
2018-10-07T05:58:24.635Z,11.11
2018-10-07T05:58:55.754Z,11.13
2018-10-07T05:59:26.883Z,11.17
2018-10-07T05:59:58.122Z,11.17
2018-10-07T06:00:29.276Z,11.22
2018-10-07T06:01:00.457Z,11.20
2018-10-07T06:01:31.655Z,11.25
2018-10-07T06:02:02.767Z,11.25
2018-10-07T06:02:33.900Z,11.36
2018-10-07T06:03:05.010Z,11.43
2018-10-07T06:03:36.135Z,11.49
2018-10-07T06:04:07.312Z,11.48
2018-10-07T06:04:38.494Z,11.55
2018-10-07T06:05:10.395Z,11.54
2018-10-07T06:05:41.519Z,11.62
2018-10-07T06:06:13.601Z,11.69
2018-10-07T06:06:44.711Z,11.80
2018-10-07T06:07:15.862Z,11.93
2018-10-07T06:07:46.974Z,12.01
2018-10-07T06:08:18.106Z,12.08
2018-10-07T06:08:49.202Z,12.12
2018-10-07T06:09:20.331Z,12.28
2018-10-07T06:09:51.570Z,12.33
2018-10-07T06:10:22.711Z,12.44
2018-10-07T06:10:53.830Z,12.41
2018-10-07T06:11:24.972Z,12.58
2018-10-07T06:11:56.164Z,12.64
2018-10-07T06:12:27.277Z,12.64
2018-10-07T06:12:58.382Z,12.78
2018-10-07T06:13:29.516Z,12.87
2018-10-07T06:14:00.784Z,12.92
2018-10-07T06:14:31.915Z,12.82
2018-10-07T06:15:03.092Z,12.68
2018-10-07T06:15:34.246Z,12.65
2018-10-07T06:16:05.476Z,12.67
2018-10-07T06:16:36.616Z,12.72
2018-10-07T06:17:07.746Z,12.79
2018-10-07T06:17:38.894Z,12.75
2018-10-07T06:18:10.025Z,12.74
2018-10-07T06:18:41.223Z,12.67
2018-10-07T06:19:12.436Z,12.60
2018-10-07T06:19:43.563Z,12.57
2018-10-07T06:20:14.744Z,12.55
2018-10-07T06:20:45.911Z,12.53
2018-10-07T06:21:17.135Z,12.55
2018-10-07T06:21:48.243Z,12.61
2018-10-07T06:22:19.381Z,12.65
2018-10-07T06:22:50.505Z,12.46
2018-10-07T06:23:21.626Z,12.49
2018-10-07T06:23:52.794Z,12.52
2018-10-07T06:24:23.908Z,12.54
2018-10-07T06:24:55.023Z,12.53
2018-10-07T06:25:26.166Z,12.54
2018-10-07T06:25:57.327Z,12.49
2018-10-07T06:26:28.434Z,12.50
2018-10-07T06:26:59.548Z,12.53
2018-10-07T06:27:30.722Z,12.56
2018-10-07T06:28:01.921Z,12.54
2018-10-07T06:28:33.063Z,12.55
2018-10-07T06:29:05.419Z,12.56
2018-10-07T06:29:36.656Z,12.55
2018-10-07T06:30:07.798Z,12.55
2018-10-07T06:30:38.927Z,12.55
2018-10-07T06:31:10.056Z,12.56
2018-10-07T06:31:41.167Z,12.51
2018-10-07T06:32:12.365Z,12.47
2018-10-07T06:32:43.487Z,12.50
2018-10-07T06:33:14.642Z,12.51
2018-10-07T06:33:45.789Z,12.49
2018-10-07T06:34:16.978Z,12.56
2018-10-07T06:34:48.125Z,12.60
2018-10-07T06:35:19.244Z,12.57
2018-10-07T06:35:50.376Z,12.47
2018-10-07T06:36:21.503Z,12.37
2018-10-07T06:36:52.672Z,12.31
2018-10-07T06:37:23.848Z,12.33
2018-10-07T06:37:54.971Z,12.34
2018-10-07T06:38:26.093Z,12.35
2018-10-07T06:38:57.224Z,12.34
2018-10-07T06:39:28.374Z,12.33
2018-10-07T06:39:59.606Z,12.33
2018-10-07T06:40:30.758Z,12.33
2018-10-07T06:41:01.927Z,12.34
2018-10-07T06:41:33.094Z,12.37
2018-10-07T06:42:04.254Z,12.39
2018-10-07T06:42:35.369Z,12.50
2018-10-07T06:43:06.470Z,12.51
2018-10-07T06:43:37.575Z,12.59
2018-10-07T06:44:08.695Z,12.67
2018-10-07T06:44:39.812Z,12.62
2018-10-07T06:45:10.975Z,12.63
2018-10-07T06:45:42.154Z,12.68
2018-10-07T06:46:13.345Z,12.66
2018-10-07T06:46:44.467Z,12.70
2018-10-07T06:47:15.593Z,12.67
2018-10-07T06:47:46.723Z,12.65
2018-10-07T06:48:17.850Z,12.71
2018-10-07T06:48:49.711Z,12.80
2018-10-07T06:49:20.960Z,12.86
2018-10-07T06:49:52.092Z,12.92
2018-10-07T06:50:23.211Z,12.95
2018-10-07T06:50:54.333Z,12.98
2018-10-07T06:51:25.530Z,13.03
2018-10-07T06:51:56.737Z,13.08